Time;durP1;ratioP1;P1;durP2;ratioP2;P2;SDS_P1;SDS_P2;PMS_P1;PMS_P2;Temp;Humidity;BMP_temperature;BMP_pressure;BME280_temperature;BME280_humidity;BME280_pressure;Samples;Min_cycle;Max_cycle;Signal;HPM_P1;HPM_P2
2022/09/07 00:01:06;;;;;;;;;2.00;2.00;30.70;99.90;;;;;;4960437;28;8900;-68
2022/09/07 00:03:37;;;;;;;;;2.00;2.00;30.70;99.90;;;;;;4957826;28;8901;-67
2022/09/07 00:06:10;;;;;;;;;2.00;2.00;30.70;99.90;;;;;;4959338;28;10062;-68
2022/09/07 00:08:45;;;;;;;;;1.20;1.20;30.60;99.90;;;;;;4950249;28;8867;-66
2022/09/07 00:11:19;;;;;;;;;1.00;1.00;30.50;99.90;;;;;;4954871;28;8851;-64
2022/09/07 00:13:51;;;;;;;;;1.00;1.00;30.50;99.90;;;;;;4949068;28;8873;-66
2022/09/07 00:16:26;;;;;;;;;1.60;1.60;30.60;99.90;;;;;;4949888;28;8882;-65
2022/09/07 00:19:02;;;;;;;;;1.00;1.00;30.50;99.90;;;;;;4959842;28;8893;-65
2022/09/07 00:21:33;;;;;;;;;1.60;1.60;30.50;99.90;;;;;;4955271;28;8862;-64
2022/09/07 00:24:04;;;;;;;;;1.00;1.00;30.40;99.90;;;;;;4956928;28;9881;-65
2022/09/07 00:26:37;;;;;;;;;1.80;1.80;30.30;99.90;;;;;;4956548;28;8894;-65
2022/09/07 00:29:10;;;;;;;;;1.00;1.00;30.20;99.90;;;;;;4988237;28;8871;-68
2022/09/07 00:31:42;;;;;;;;;2.00;2.00;30.10;99.90;;;;;;4963244;28;8858;-68
2022/09/07 00:34:14;;;;;;;;;2.60;2.60;30.10;99.90;;;;;;4958190;28;8863;-66
2022/09/07 00:36:45;;;;;;;;;1.00;1.00;30.10;99.90;;;;;;4956788;28;8905;-65
2022/09/07 00:39:16;;;;;;;;;1.40;1.40;30.00;99.90;;;;;;4956123;28;8847;-65
2022/09/07 00:41:47;;;;;;;;;1.60;1.60;30.10;99.90;;;;;;4958906;28;8851;-65
2022/09/07 00:44:43;;;;;;;;;2.00;2.00;30.00;99.90;;;;;;4984367;28;8882;-65
2022/09/07 00:47:26;;;;;;;;;1.20;1.20;30.00;99.90;;;;;;4954261;28;8863;-65
2022/09/07 00:50:05;;;;;;;;;1.00;1.00;30.00;99.90;;;;;;4951037;28;9585;-66
2022/09/07 00:52:38;;;;;;;;;3.20;1.60;30.00;99.90;;;;;;4959323;28;8859;-64
2022/09/07 00:55:14;;;;;;;;;1.00;1.00;30.00;99.90;;;;;;4956870;28;8893;-64
2022/09/07 00:57:49;;;;;;;;;1.00;1.00;29.90;99.90;;;;;;4976477;28;8865;-64
2022/09/07 01:00:19;;;;;;;;;1.40;1.40;29.90;99.90;;;;;;4964790;28;8843;-67
2022/09/07 01:02:54;;;;;;;;;1.80;1.80;29.80;99.90;;;;;;4957908;28;8917;-67
2022/09/07 01:06:08;;;;;;;;;7.40;7.40;29.80;99.90;;;;;;4957579;28;8850;-64
2022/09/07 01:08:42;;;;;;;;;4.40;4.40;29.60;99.90;;;;;;4950299;28;9020;-64
2022/09/07 01:11:14;;;;;;;;;2.40;2.20;29.70;99.90;;;;;;4953818;28;8930;-66
2022/09/07 01:13:47;;;;;;;;;2.20;2.20;29.70;99.90;;;;;;4955795;28;8874;-66
2022/09/07 01:16:21;;;;;;;;;5.00;3.40;29.70;99.90;;;;;;4949520;28;8859;-65
2022/09/07 01:19:13;;;;;;;;;3.00;3.00;29.70;99.90;;;;;;4966285;28;8862;-66
2022/09/07 01:22:08;;;;;;;;;4.00;3.40;29.70;99.90;;;;;;4953130;28;8901;-65
2022/09/07 01:24:52;;;;;;;;;2.80;2.20;29.70;99.90;;;;;;4946362;28;8839;-64
2022/09/07 01:28:03;;;;;;;;;2.00;2.00;29.60;99.90;;;;;;4954078;28;8867;-64
2022/09/07 01:30:41;;;;;;;;;0.00;0.00;29.60;99.90;;;;;;4955312;28;8851;-69
2022/09/07 01:33:40;;;;;;;;;2.60;1.80;29.50;99.90;;;;;;4956308;28;8842;-65
2022/09/07 01:36:43;;;;;;;;;2.20;2.20;29.50;99.90;;;;;;4954826;28;8861;-65
2022/09/07 01:39:19;;;;;;;;;2.00;2.00;29.50;99.90;;;;;;4948057;28;8847;-65
2022/09/07 01:42:07;;;;;;;;;2.60;2.60;29.50;99.90;;;;;;4958037;28;8857;-65
2022/09/07 01:44:49;;;;;;;;;1.00;1.00;29.40;99.90;;;;;;4953256;28;8893;-68
2022/09/07 01:47:36;;;;;;;;;3.00;3.00;29.40;99.90;;;;;;4981622;28;8859;-67
2022/09/07 01:50:26;;;;;;;;;2.00;2.00;29.40;99.90;;;;;;4946018;28;8871;-67
2022/09/07 01:53:25;;;;;;;;;2.00;2.00;29.40;99.90;;;;;;4961537;28;8876;-67
2022/09/07 01:56:06;;;;;;;;;0.80;0.80;29.20;99.90;;;;;;4946725;28;8865;-63
2022/09/07 01:59:00;;;;;;;;;2.40;2.40;29.10;99.90;;;;;;4946634;28;8865;-65
2022/09/07 02:01:44;;;;;;;;;3.00;3.00;29.10;99.90;;;;;;4972189;28;8839;-66
2022/09/07 02:04:27;;;;;;;;;2.80;2.80;29.10;99.90;;;;;;4950659;28;8881;-67
2022/09/07 02:07:13;;;;;;;;;2.40;2.40;29.10;99.90;;;;;;4950600;28;8871;-66
2022/09/07 02:10:21;;;;;;;;;3.60;2.00;29.00;99.90;;;;;;4954307;28;8905;-68
2022/09/07 02:13:10;;;;;;;;;2.00;2.00;29.10;99.90;;;;;;4946602;28;8859;-69
2022/09/07 02:15:51;;;;;;;;;2.40;2.40;29.10;99.90;;;;;;4947077;28;8859;-65
2022/09/07 02:18:25;;;;;;;;;2.60;2.60;29.20;99.90;;;;;;4952899;28;8972;-64
2022/09/07 02:20:59;;;;;;;;;2.20;2.20;29.20;99.90;;;;;;4949033;28;8850;-64
2022/09/07 02:23:36;;;;;;;;;3.00;2.00;29.10;99.90;;;;;;4980611;28;8859;-65
2022/09/07 02:26:14;;;;;;;;;2.00;2.00;29.20;99.90;;;;;;4944545;28;10500;-64
2022/09/07 02:28:47;;;;;;;;;2.40;2.40;29.10;99.90;;;;;;4961651;28;8849;-67
2022/09/07 02:31:18;;;;;;;;;2.00;2.00;29.10;99.90;;;;;;4945463;28;8867;-67
2022/09/07 02:33:49;;;;;;;;;2.00;2.00;29.00;99.90;;;;;;4948283;28;8881;-64
2022/09/07 02:39:22;;;;;;;;;1.00;1.00;29.00;99.90;;;;;;4976268;28;8861;-64
2022/09/07 02:41:55;;;;;;;;;1.00;1.00;28.90;99.90;;;;;;4935713;28;8867;-64
2022/09/07 02:44:33;;;;;;;;;1.60;1.60;28.80;99.90;;;;;;4948722;28;8854;-64
2022/09/07 02:47:29;;;;;;;;;3.00;1.00;28.90;99.90;;;;;;4946002;28;8888;-64
2022/09/07 02:50:36;;;;;;;;;1.60;1.60;29.00;99.90;;;;;;4947015;28;9563;-68
2022/09/07 02:53:43;;;;;;;;;1.00;1.00;28.90;99.90;;;;;;4948044;28;8861;-67
2022/09/07 02:56:41;;;;;;;;;0.60;0.60;29.00;99.90;;;;;;4949511;28;8846;-66
2022/09/07 02:59:24;;;;;;;;;1.80;1.00;28.80;99.90;;;;;;4950756;28;9577;-64
2022/09/07 03:02:25;;;;;;;;;1.00;1.00;28.80;99.90;;;;;;4949057;28;9432;-64
2022/09/07 03:05:03;;;;;;;;;1.00;1.00;28.80;99.90;;;;;;4948650;28;9516;-65
2022/09/07 03:07:52;;;;;;;;;2.00;2.00;28.80;99.90;;;;;;4950854;28;10107;-64
2022/09/07 03:10:24;;;;;;;;;1.00;1.00;28.70;99.90;;;;;;4948434;28;8839;-65
2022/09/07 03:12:57;;;;;;;;;1.00;1.00;28.70;99.90;;;;;;4962110;28;8851;-63
2022/09/07 03:15:31;;;;;;;;;0.60;0.60;28.70;99.90;;;;;;4979349;28;8855;-64
2022/09/07 03:18:02;;;;;;;;;1.00;1.00;28.70;99.90;;;;;;4950542;28;8860;-64
2022/09/07 03:20:34;;;;;;;;;1.00;1.00;28.70;99.90;;;;;;4949381;28;8918;-67
2022/09/07 03:23:05;;;;;;;;;1.00;1.00;28.60;99.90;;;;;;4945967;28;8850;-67
2022/09/07 03:25:36;;;;;;;;;1.00;1.00;28.60;99.90;;;;;;4949445;28;8870;-66
2022/09/07 03:28:07;;;;;;;;;1.00;1.00;28.50;99.90;;;;;;4945181;28;8877;-67
2022/09/07 03:30:43;;;;;;;;;1.00;1.00;28.50;99.90;;;;;;4953470;28;8863;-67
2022/09/07 03:33:14;;;;;;;;;0.00;0.00;28.40;99.90;;;;;;4974990;28;9585;-66
2022/09/07 03:35:58;;;;;;;;;1.00;1.00;28.50;99.90;;;;;;4949162;28;8866;-68
2022/09/07 03:38:30;;;;;;;;;1.00;1.00;28.40;99.90;;;;;;4962915;28;8900;-63
2022/09/07 03:41:04;;;;;;;;;1.40;0.40;28.30;99.90;;;;;;4944694;28;8885;-63
2022/09/07 03:43:35;;;;;;;;;0.00;0.00;28.40;99.90;;;;;;4946976;28;8862;-64
2022/09/07 03:46:09;;;;;;;;;1.00;1.00;28.30;99.90;;;;;;4965729;28;8859;-64
2022/09/07 03:48:40;;;;;;;;;1.00;1.00;28.20;99.90;;;;;;4977367;28;9633;-64
2022/09/07 03:51:11;;;;;;;;;1.00;1.00;28.20;99.90;;;;;;4946225;28;8855;-63
2022/09/07 03:53:47;;;;;;;;;0.00;0.00;28.10;99.90;;;;;;4942704;28;8859;-63
2022/09/07 03:56:20;;;;;;;;;0.80;0.80;28.10;99.90;;;;;;4951702;28;8846;-63
2022/09/07 03:58:53;;;;;;;;;1.00;1.00;28.10;99.90;;;;;;4947407;28;9475;-67
2022/09/07 04:01:25;;;;;;;;;1.00;1.00;28.10;99.90;;;;;;4953949;28;8928;-66
2022/09/07 04:04:03;;;;;;;;;0.60;0.60;28.10;99.90;;;;;;4950812;28;8854;-68
2022/09/07 04:06:34;;;;;;;;;1.00;1.00;28.10;99.90;;;;;;4949562;28;8857;-68
2022/09/07 04:09:10;;;;;;;;;1.00;1.00;28.00;99.90;;;;;;4950136;28;8901;-64
2022/09/07 04:11:42;;;;;;;;;0.20;0.20;27.90;99.90;;;;;;4969351;28;8883;-65
2022/09/07 04:14:14;;;;;;;;;0.60;0.60;27.90;99.90;;;;;;4951974;28;8865;-65
2022/09/07 04:16:47;;;;;;;;;0.60;0.60;27.80;99.90;;;;;;4978101;28;9736;-64
2022/09/07 04:19:18;;;;;;;;;0.40;0.40;27.90;99.90;;;;;;4949692;28;8894;-66
2022/09/07 04:21:51;;;;;;;;;0.20;0.20;27.80;99.90;;;;;;4954062;28;8862;-65
2022/09/07 04:24:23;;;;;;;;;0.20;0.20;27.80;99.90;;;;;;4953084;28;8867;-64
2022/09/07 04:26:54;;;;;;;;;0.60;0.60;27.80;99.90;;;;;;4956655;28;8839;-66
2022/09/07 04:29:25;;;;;;;;;1.00;1.00;27.70;99.90;;;;;;4963205;28;8895;-65
2022/09/07 04:31:56;;;;;;;;;1.00;1.00;27.80;99.90;;;;;;4953863;28;8867;-65
2022/09/07 04:34:27;;;;;;;;;0.60;0.60;27.70;99.90;;;;;;4950360;28;9819;-67
2022/09/07 04:36:58;;;;;;;;;0.40;0.40;27.70;99.90;;;;;;4956927;28;8890;-67
2022/09/07 04:39:30;;;;;;;;;0.00;0.00;27.70;99.90;;;;;;4956648;28;8882;-67
2022/09/07 04:42:03;;;;;;;;;1.00;1.00;27.60;99.90;;;;;;4959491;28;8858;-67
2022/09/07 04:44:34;;;;;;;;;0.20;0.20;27.60;99.90;;;;;;4971938;28;8870;-67
2022/09/07 04:47:05;;;;;;;;;0.00;0.00;27.50;99.90;;;;;;4961565;28;8878;-67
2022/09/07 04:49:37;;;;;;;;;1.00;1.00;27.60;99.90;;;;;;4958651;28;8863;-65
2022/09/07 04:52:10;;;;;;;;;0.80;0.80;27.50;99.90;;;;;;4971493;28;8855;-64
2022/09/07 04:54:41;;;;;;;;;0.00;0.00;27.50;99.90;;;;;;4959390;28;8858;-66
2022/09/07 04:57:12;;;;;;;;;0.00;0.00;27.40;99.90;;;;;;4953281;28;8862;-65
2022/09/07 04:59:42;;;;;;;;;1.80;1.80;27.40;99.90;;;;;;4958849;28;8858;-65
2022/09/07 05:02:16;;;;;;;;;1.00;1.00;27.40;99.90;;;;;;4953284;28;8870;-65
2022/09/07 05:04:48;;;;;;;;;0.60;0.60;27.40;99.90;;;;;;4954378;28;8897;-65
2022/09/07 05:07:18;;;;;;;;;0.00;0.00;27.40;99.90;;;;;;4954270;28;8874;-64
2022/09/07 05:09:48;;;;;;;;;0.00;0.00;27.30;99.90;;;;;;4957996;28;9056;-66
2022/09/07 05:12:18;;;;;;;;;0.00;0.00;27.20;99.90;;;;;;4955328;28;8851;-65
2022/09/07 05:14:49;;;;;;;;;0.60;0.60;27.20;99.90;;;;;;4956117;28;8851;-69
2022/09/07 05:17:20;;;;;;;;;0.00;0.00;27.20;99.90;;;;;;4977289;28;8861;-68
2022/09/07 05:19:53;;;;;;;;;0.00;0.00;27.20;99.90;;;;;;4972847;28;8846;-70
2022/09/07 05:22:24;;;;;;;;;0.00;0.00;27.20;99.90;;;;;;4940984;28;8879;-66
2022/09/07 05:24:54;;;;;;;;;0.60;0.60;27.10;99.90;;;;;;4959050;28;8839;-68
2022/09/07 05:27:26;;;;;;;;;0.00;0.00;27.10;99.90;;;;;;4956966;28;8870;-67
2022/09/07 05:30:00;;;;;;;;;0.00;0.00;27.10;99.90;;;;;;4957228;28;8851;-67
2022/09/07 05:32:35;;;;;;;;;0.00;0.00;27.10;99.90;;;;;;4956524;28;8894;-67
2022/09/07 05:35:08;;;;;;;;;0.00;0.00;27.00;99.90;;;;;;4981999;28;8861;-68
2022/09/07 05:37:39;;;;;;;;;0.00;0.00;27.00;99.90;;;;;;4956072;28;8870;-67
2022/09/07 05:40:14;;;;;;;;;0.80;0.80;26.90;99.90;;;;;;4950584;28;11230;-67
2022/09/07 05:42:45;;;;;;;;;0.00;0.00;27.00;99.90;;;;;;4949830;28;9565;-67
2022/09/07 05:45:15;;;;;;;;;0.00;0.00;26.90;99.90;;;;;;4953511;28;8870;-65
2022/09/07 05:47:49;;;;;;;;;0.00;0.00;26.90;99.90;;;;;;4949823;28;8903;-66
2022/09/07 05:50:20;;;;;;;;;0.60;0.60;26.80;99.90;;;;;;4950935;28;8859;-64
2022/09/07 05:52:51;;;;;;;;;0.00;0.00;26.80;99.90;;;;;;4955037;28;8973;-65
2022/09/07 05:55:23;;;;;;;;;0.00;0.00;26.80;99.90;;;;;;4945959;28;8873;-68
2022/09/07 05:57:58;;;;;;;;;0.00;0.00;26.80;99.90;;;;;;4955713;28;8859;-66
2022/09/07 06:00:31;;;;;;;;;0.00;0.00;26.70;99.90;;;;;;4951862;28;9606;-68
2022/09/07 06:03:03;;;;;;;;;0.00;0.00;26.70;99.90;;;;;;4958573;28;8850;-67
2022/09/07 06:05:34;;;;;;;;;0.00;0.00;26.70;99.90;;;;;;4951706;28;8913;-66
2022/09/07 06:08:07;;;;;;;;;0.00;0.00;26.80;99.90;;;;;;4938590;28;9811;-64
2022/09/07 06:10:39;;;;;;;;;0.00;0.00;26.70;99.90;;;;;;4949745;28;9589;-65
2022/09/07 06:13:14;;;;;;;;;0.00;0.00;26.60;99.90;;;;;;4951467;28;8877;-64
2022/09/07 06:15:44;;;;;;;;;0.00;0.00;26.60;99.90;;;;;;4952288;28;8839;-63
2022/09/07 06:18:15;;;;;;;;;0.00;0.00;26.60;99.90;;;;;;4955814;28;9033;-65
2022/09/07 06:20:45;;;;;;;;;0.00;0.00;26.60;99.90;;;;;;4962765;28;8891;-65
2022/09/07 06:23:15;;;;;;;;;0.00;0.00;26.50;99.90;;;;;;4952797;28;8866;-64
2022/09/07 06:25:49;;;;;;;;;0.20;0.20;26.50;99.90;;;;;;4967391;28;8859;-65
2022/09/07 06:28:27;;;;;;;;;0.20;0.20;26.50;99.90;;;;;;4979106;28;8839;-64
2022/09/07 06:31:08;;;;;;;;;0.00;0.00;26.50;99.90;;;;;;4948864;28;8875;-64
2022/09/07 06:33:41;;;;;;;;;0.00;0.00;26.50;99.90;;;;;;4953662;28;8862;-67
2022/09/07 06:36:13;;;;;;;;;0.00;0.00;26.40;99.90;;;;;;4948574;28;8861;-67
2022/09/07 06:38:43;;;;;;;;;0.00;0.00;26.40;99.90;;;;;;4955231;28;8855;-68
2022/09/07 06:41:18;;;;;;;;;0.00;0.00;26.40;99.90;;;;;;4966849;28;9654;-67
2022/09/07 06:44:08;;;;;;;;;0.00;0.00;26.40;99.90;;;;;;4954017;28;8871;-67
2022/09/07 06:46:39;;;;;;;;;0.00;0.00;26.40;99.90;;;;;;4949594;28;8977;-67
2022/09/07 06:49:34;;;;;;;;;0.00;0.00;26.40;99.90;;;;;;4953331;28;8866;-67
2022/09/07 06:52:06;;;;;;;;;0.00;0.00;26.40;99.90;;;;;;4951525;28;8858;-68
2022/09/07 06:54:38;;;;;;;;;0.00;0.00;26.40;99.90;;;;;;4953474;28;8909;-67
2022/09/07 06:57:25;;;;;;;;;0.00;0.00;26.30;99.90;;;;;;4947535;28;8847;-67
2022/09/07 07:00:04;;;;;;;;;0.00;0.00;26.30;99.90;;;;;;4953031;28;8874;-67
2022/09/07 07:02:36;;;;;;;;;0.00;0.00;26.20;99.90;;;;;;4952395;28;8855;-67
2022/09/07 07:05:10;;;;;;;;;0.80;0.00;26.20;99.90;;;;;;4952684;28;8903;-66
2022/09/07 07:07:41;;;;;;;;;0.00;0.00;26.20;99.90;;;;;;4949300;28;8905;-67
2022/09/07 07:10:12;;;;;;;;;0.00;0.00;26.10;99.90;;;;;;4980821;28;8851;-67
2022/09/07 07:12:43;;;;;;;;;0.00;0.00;26.10;99.90;;;;;;4966866;28;8909;-67
2022/09/07 07:15:11;;;;;;;;;1.00;1.00;26.20;99.90;;;;;;4951996;28;8827;-64
2022/09/07 07:17:46;;;;;;;;;0.80;0.00;26.10;99.90;;;;;;4976521;28;8853;-65
2022/09/07 07:20:26;;;;;;;;;1.00;1.00;26.10;99.90;;;;;;4965006;28;8870;-67
2022/09/07 07:22:57;;;;;;;;;0.00;0.00;26.00;99.90;;;;;;4932950;28;9000;-68
2022/09/07 07:25:28;;;;;;;;;0.00;0.00;26.00;99.90;;;;;;4953252;28;8857;-68
2022/09/07 07:27:59;;;;;;;;;0.20;0.20;26.00;99.90;;;;;;4946983;28;8824;-68
2022/09/07 07:30:56;;;;;;;;;0.80;0.80;25.90;99.90;;;;;;4970731;28;8891;-66
2022/09/07 07:33:34;;;;;;;;;0.00;0.00;25.90;99.90;;;;;;4953999;28;9645;-68
2022/09/07 07:36:11;;;;;;;;;1.00;1.00;25.90;99.90;;;;;;4976227;28;8854;-68
2022/09/07 07:38:45;;;;;;;;;0.80;0.80;25.90;99.90;;;;;;4951669;28;8889;-67
2022/09/07 07:41:32;;;;;;;;;0.80;0.80;25.90;99.90;;;;;;4948388;28;9735;-67
2022/09/07 07:44:19;;;;;;;;;0.00;0.00;25.80;99.90;;;;;;4975626;28;8843;-64
2022/09/07 07:46:51;;;;;;;;;0.40;0.40;25.90;99.90;;;;;;4948721;28;8858;-65
2022/09/07 07:49:23;;;;;;;;;0.00;0.00;25.80;99.90;;;;;;4949687;28;9666;-66
2022/09/07 07:51:55;;;;;;;;;0.00;0.00;25.80;99.90;;;;;;4945955;28;8901;-68
2022/09/07 07:54:48;;;;;;;;;0.00;0.00;25.70;99.90;;;;;;4951530;28;8889;-68
2022/09/07 07:57:20;;;;;;;;;0.00;0.00;25.70;99.90;;;;;;4946688;28;8835;-67
2022/09/07 07:59:53;;;;;;;;;0.00;0.00;25.80;99.90;;;;;;4976139;28;8835;-65
2022/09/07 08:02:23;;;;;;;;;0.60;0.60;25.80;99.90;;;;;;4973138;28;8886;-64
2022/09/07 08:04:54;;;;;;;;;0.60;0.20;25.70;99.90;;;;;;4948509;28;8883;-67
2022/09/07 08:07:24;;;;;;;;;0.40;0.40;25.70;99.90;;;;;;4943335;28;8874;-67
2022/09/07 08:09:55;;;;;;;;;0.00;0.00;25.70;99.90;;;;;;4951430;28;9622;-68
2022/09/07 08:12:30;;;;;;;;;0.80;0.80;25.70;99.90;;;;;;4947251;28;8890;-67
2022/09/07 08:15:03;;;;;;;;;0.00;0.00;25.60;99.90;;;;;;4953443;28;9569;-64
2022/09/07 08:17:33;;;;;;;;;0.00;0.00;25.60;99.90;;;;;;4959575;28;9013;-64
2022/09/07 08:20:04;;;;;;;;;0.00;0.00;25.60;99.90;;;;;;4946437;28;8874;-67
2022/09/07 08:22:36;;;;;;;;;1.00;1.00;25.60;99.90;;;;;;4972274;28;9013;-67
2022/09/07 08:25:07;;;;;;;;;0.60;0.60;25.70;99.90;;;;;;4961044;28;8869;-64
2022/09/07 08:27:37;;;;;;;;;0.60;0.40;25.50;99.90;;;;;;4952064;28;8839;-64
2022/09/07 08:30:15;;;;;;;;;0.20;0.20;25.50;99.90;;;;;;4949510;28;8994;-67
2022/09/07 08:32:46;;;;;;;;;0.00;0.00;25.50;99.90;;;;;;4972714;28;8875;-67
2022/09/07 08:35:18;;;;;;;;;1.00;1.00;25.50;99.90;;;;;;4950769;28;10159;-67
2022/09/07 08:37:49;;;;;;;;;0.60;0.60;25.50;99.90;;;;;;4948699;28;8835;-67
2022/09/07 08:40:20;;;;;;;;;0.00;0.00;25.50;99.90;;;;;;4956265;28;8878;-67
2022/09/07 08:42:54;;;;;;;;;0.60;0.60;25.40;99.90;;;;;;4969194;28;8878;-67
2022/09/07 08:45:29;;;;;;;;;0.00;0.00;25.40;99.90;;;;;;4954535;28;8886;-65
2022/09/07 08:48:00;;;;;;;;;1.00;1.00;25.40;99.90;;;;;;4952697;28;8897;-64
2022/09/07 08:51:13;;;;;;;;;0.00;0.00;25.30;99.90;;;;;;4953883;28;9045;-65
2022/09/07 08:53:48;;;;;;;;;0.00;0.00;25.30;99.90;;;;;;4946623;28;8890;-67
2022/09/07 08:56:40;;;;;;;;;0.00;0.00;25.30;99.90;;;;;;4979467;28;8831;-67
2022/09/07 08:59:51;;;;;;;;;0.40;0.40;25.40;99.90;;;;;;4976745;28;9569;-66
2022/09/07 09:02:26;;;;;;;;;0.00;0.00;25.40;99.90;;;;;;4955822;28;8854;-67
2022/09/07 09:05:03;;;;;;;;;0.00;0.00;25.40;99.90;;;;;;4953699;28;8867;-65
2022/09/07 09:08:48;;;;;;;;;0.60;0.60;25.40;99.90;;;;;;4954860;28;9042;-66
2022/09/07 09:11:34;;;;;;;;;0.00;0.00;25.40;99.90;;;;;;4953365;28;8897;-65
2022/09/07 09:14:41;;;;;;;;;0.00;0.00;25.30;99.90;;;;;;4970801;28;8871;-64
2022/09/07 09:17:52;;;;;;;;;0.00;0.00;25.30;99.90;;;;;;4958924;28;8881;-65
2022/09/07 09:20:48;;;;;;;;;0.00;0.00;25.30;99.90;;;;;;4956036;28;8986;-66
2022/09/07 09:23:23;;;;;;;;;1.00;1.00;25.30;99.90;;;;;;4970378;28;8861;-64
2022/09/07 09:25:57;;;;;;;;;0.40;0.40;25.20;99.90;;;;;;4973882;28;8839;-65
2022/09/07 09:28:27;;;;;;;;;0.00;0.00;25.20;99.90;;;;;;4959151;28;8862;-66
2022/09/07 09:31:00;;;;;;;;;2.00;0.00;25.30;99.90;;;;;;4958598;28;9006;-67
2022/09/07 09:33:32;;;;;;;;;0.20;0.20;25.10;99.90;;;;;;4959114;28;8847;-65
2022/09/07 09:36:21;;;;;;;;;0.00;0.00;25.10;99.90;;;;;;4988641;28;8888;-65
2022/09/07 09:38:52;;;;;;;;;2.00;0.40;25.10;99.90;;;;;;4956417;28;8850;-66
2022/09/07 09:41:22;;;;;;;;;0.40;0.40;25.10;99.90;;;;;;4956746;28;8877;-67
2022/09/07 09:43:55;;;;;;;;;0.20;0.20;25.00;99.90;;;;;;4957607;28;8857;-65
2022/09/07 09:46:37;;;;;;;;;1.00;1.00;25.00;99.90;;;;;;4966355;28;8849;-64
2022/09/07 09:49:23;;;;;;;;;0.00;0.00;25.00;99.90;;;;;;4939222;28;8858;-69
2022/09/07 09:51:57;;;;;;;;;0.00;0.00;25.00;99.90;;;;;;4955758;28;8889;-67
2022/09/07 09:54:55;;;;;;;;;0.00;0.00;25.10;99.90;;;;;;4955479;28;8834;-65
2022/09/07 09:57:57;;;;;;;;;0.00;0.00;25.00;99.90;;;;;;4985253;28;8881;-65
2022/09/07 10:01:00;;;;;;;;;0.00;0.00;25.00;99.90;;;;;;4957866;28;8854;-65
2022/09/07 10:03:51;;;;;;;;;0.00;0.00;24.90;99.90;;;;;;4953716;28;8841;-65
2022/09/07 10:06:29;;;;;;;;;1.00;1.00;24.90;99.90;;;;;;4952350;28;8893;-65
2022/09/07 10:09:02;;;;;;;;;0.60;0.60;24.90;99.90;;;;;;4955135;28;8889;-67
2022/09/07 10:11:44;;;;;;;;;0.20;0.20;24.90;99.90;;;;;;4955962;28;8874;-66
2022/09/07 10:14:42;;;;;;;;;1.20;1.20;24.90;99.90;;;;;;4945960;28;8851;-67
2022/09/07 10:17:31;;;;;;;;;2.00;2.00;24.90;99.90;;;;;;4953607;28;8862;-68
2022/09/07 10:20:22;;;;;;;;;0.40;0.40;24.80;99.90;;;;;;4968627;28;8929;-65
2022/09/07 10:22:51;;;;;;;;;1.00;1.00;24.90;99.90;;;;;;4952581;28;8973;-65
2022/09/07 10:25:35;;;;;;;;;0.60;0.60;24.80;99.90;;;;;;4973476;28;8892;-66
2022/09/07 10:28:14;;;;;;;;;2.00;0.60;24.80;99.90;;;;;;4951093;28;8874;-67
2022/09/07 10:30:57;;;;;;;;;0.00;0.00;24.70;99.90;;;;;;4957346;28;8901;-64
2022/09/07 10:33:40;;;;;;;;;0.00;0.00;24.80;99.90;;;;;;4977822;28;8839;-65
2022/09/07 10:36:35;;;;;;;;;0.00;0.00;24.70;99.90;;;;;;4946787;28;8865;-64
2022/09/07 10:39:34;;;;;;;;;0.80;0.80;24.70;99.90;;;;;;4956191;28;8859;-68
2022/09/07 10:42:22;;;;;;;;;1.00;1.00;24.70;99.90;;;;;;4950417;28;8862;-68
2022/09/07 10:45:20;;;;;;;;;2.00;1.00;24.70;99.90;;;;;;4953355;28;8965;-65
2022/09/07 10:48:19;;;;;;;;;0.40;0.40;24.60;99.90;;;;;;4954054;28;8842;-65
2022/09/07 10:50:54;;;;;;;;;2.00;0.20;24.60;99.90;;;;;;4969651;28;8876;-64
2022/09/07 10:53:54;;;;;;;;;0.00;0.00;24.60;99.90;;;;;;4947275;28;8890;-66
2022/09/07 10:56:58;;;;;;;;;1.00;1.00;24.60;99.90;;;;;;4950573;28;8837;-67
2022/09/07 10:59:55;;;;;;;;;1.00;1.00;24.50;99.90;;;;;;4951664;28;8842;-67
2022/09/07 11:02:58;;;;;;;;;1.00;1.00;24.50;99.90;;;;;;4954574;28;8839;-68
2022/09/07 11:06:08;;;;;;;;;3.00;1.20;24.60;99.90;;;;;;4952923;28;8925;-67
2022/09/07 11:09:10;;;;;;;;;1.00;1.00;24.50;99.90;;;;;;4950829;28;8847;-68
2022/09/07 11:12:09;;;;;;;;;0.40;0.40;24.50;99.90;;;;;;4979098;28;8870;-66
2022/09/07 11:14:51;;;;;;;;;1.00;1.00;24.50;99.90;;;;;;4951435;28;8887;-67
2022/09/07 11:17:29;;;;;;;;;2.00;0.20;24.40;99.90;;;;;;4955304;28;8872;-67
2022/09/07 11:20:09;;;;;;;;;0.80;0.80;24.50;99.90;;;;;;4969029;28;8877;-67
2022/09/07 11:22:59;;;;;;;;;1.00;1.00;24.50;99.90;;;;;;4950281;28;8859;-67
2022/09/07 11:25:42;;;;;;;;;0.40;0.40;24.50;99.90;;;;;;4952596;28;8909;-65
2022/09/07 11:29:05;;;;;;;;;1.00;1.00;24.40;99.90;;;;;;4948987;28;8862;-67
2022/09/07 11:32:05;;;;;;;;;0.60;0.60;24.40;99.90;;;;;;4948249;28;8871;-65
2022/09/07 11:35:05;;;;;;;;;1.00;1.00;24.30;99.90;;;;;;4948574;28;8855;-63
2022/09/07 11:38:00;;;;;;;;;1.00;1.00;24.30;99.90;;;;;;4981401;28;9676;-65
2022/09/07 11:40:38;;;;;;;;;1.00;1.00;24.40;99.90;;;;;;4958790;28;8851;-63
2022/09/07 11:43:45;;;;;;;;;1.25;1.25;24.40;99.90;;;;;;4952391;28;8870;-67
2022/09/07 11:46:37;;;;;;;;;0.00;0.00;24.40;99.90;;;;;;4930693;28;8981;-64
2022/09/07 11:49:21;;;;;;;;;1.40;1.40;24.40;99.90;;;;;;4965695;28;9572;-67
2022/09/07 11:52:18;;;;;;;;;2.25;2.25;24.40;99.90;;;;;;4948747;28;9008;-68
2022/09/07 11:54:57;;;;;;;;;0.80;0.80;24.30;99.90;;;;;;4951979;28;8877;-65
2022/09/07 11:57:31;;;;;;;;;1.60;0.80;24.30;99.90;;;;;;4955011;28;8874;-66
2022/09/07 12:00:09;;;;;;;;;0.60;0.60;24.20;99.90;;;;;;4980569;28;8867;-67
2022/09/07 12:03:06;;;;;;;;;0.50;0.50;24.30;99.90;;;;;;4968264;28;8842;-67
2022/09/07 12:06:03;;;;;;;;;1.00;1.00;24.30;99.90;;;;;;4950960;28;8846;-66
2022/09/07 12:08:36;;;;;;;;;0.00;0.00;24.20;99.90;;;;;;4973529;28;8853;-65
2022/09/07 12:11:28;;;;;;;;;1.00;1.00;24.00;99.90;;;;;;4953898;28;8891;-65
2022/09/07 12:14:17;;;;;;;;;1.25;1.25;24.00;99.90;;;;;;4983634;28;8873;-68
2022/09/07 12:17:07;;;;;;;;;1.00;1.00;24.20;99.90;;;;;;4969530;28;8838;-67
2022/09/07 12:19:37;;;;;;;;;1.00;1.00;24.30;99.90;;;;;;4968212;28;8892;-67
2022/09/07 12:22:22;;;;;;;;;1.00;1.00;24.30;99.90;;;;;;4959697;28;8862;-66
2022/09/07 12:24:53;;;;;;;;;0.80;0.80;24.30;99.90;;;;;;4956199;28;8877;-67
2022/09/07 12:27:26;;;;;;;;;1.50;1.50;24.30;99.90;;;;;;4953881;28;8889;-66
2022/09/07 12:30:00;;;;;;;;;1.00;1.00;24.20;99.90;;;;;;4955829;28;8981;-67
2022/09/07 12:32:50;;;;;;;;;0.00;0.00;24.20;99.90;;;;;;4982304;28;9888;-68
2022/09/07 12:35:40;;;;;;;;;1.00;1.00;24.30;99.90;;;;;;4961171;28;8877;-68
2022/09/07 12:38:14;;;;;;;;;1.00;1.00;24.30;99.90;;;;;;4959917;28;8862;-64
2022/09/07 12:40:49;;;;;;;;;1.00;1.00;24.20;99.90;;;;;;4962040;28;9218;-65
2022/09/07 12:43:20;;;;;;;;;1.00;1.00;24.30;99.90;;;;;;4960792;28;8897;-64
2022/09/07 12:45:51;;;;;;;;;1.40;1.40;24.30;99.90;;;;;;4973202;28;8881;-64
2022/09/07 12:49:03;;;;;;;;;1.80;1.80;24.40;99.90;;;;;;4963042;28;8863;-63
2022/09/07 12:51:37;;;;;;;;;0.50;0.50;24.50;99.90;;;;;;4961408;28;8882;-63
2022/09/07 12:55:03;;;;;;;;;1.00;1.00;24.50;99.90;;;;;;4954818;28;8846;-68
2022/09/07 12:58:21;;;;;;;;;0.60;0.60;24.40;99.90;;;;;;4961320;28;8866;-67
2022/09/07 13:01:18;;;;;;;;;1.75;1.75;24.40;99.90;;;;;;4963109;28;8839;-65
2022/09/07 13:04:10;;;;;;;;;2.00;2.00;24.50;99.90;;;;;;4962776;28;8839;-68
2022/09/07 13:07:19;;;;;;;;;1.40;1.40;24.50;99.90;;;;;;4959885;28;8866;-68
2022/09/07 13:09:58;;;;;;;;;1.00;1.00;24.50;99.90;;;;;;4962215;28;8855;-67
2022/09/07 13:12:44;;;;;;;;;1.00;1.00;24.60;99.90;;;;;;4960007;28;8893;-69
2022/09/07 13:15:54;;;;;;;;;3.00;1.00;24.60;99.90;;;;;;4955636;28;8887;-68
2022/09/07 13:18:27;;;;;;;;;1.20;1.20;24.70;99.90;;;;;;4960663;28;9742;-67
2022/09/07 13:21:06;;;;;;;;;0.80;0.80;24.70;99.90;;;;;;4957769;28;8870;-68
2022/09/07 13:23:41;;;;;;;;;1.00;1.00;24.70;99.90;;;;;;4981077;28;8889;-64
2022/09/07 13:26:34;;;;;;;;;2.00;2.00;24.80;99.90;;;;;;4982631;28;9554;-65
2022/09/07 13:29:17;;;;;;;;;1.00;1.00;24.80;99.90;;;;;;4960475;28;8897;-64
2022/09/07 13:32:30;;;;;;;;;1.00;1.00;24.90;99.90;;;;;;4960334;28;8898;-64
2022/09/07 13:35:25;;;;;;;;;1.00;1.00;24.90;99.90;;;;;;4957637;28;8886;-67
2022/09/07 13:38:01;;;;;;;;;2.00;2.00;24.90;99.90;;;;;;4958852;28;8874;-67
2022/09/07 13:40:41;;;;;;;;;0.20;0.20;25.00;99.90;;;;;;4955398;28;8849;-65
2022/09/07 13:43:21;;;;;;;;;1.00;1.00;25.00;99.90;;;;;;4960656;28;8901;-66
2022/09/07 13:45:54;;;;;;;;;1.00;1.00;25.00;99.90;;;;;;4955997;28;8881;-67
2022/09/07 13:48:37;;;;;;;;;1.00;1.00;25.10;99.90;;;;;;4956807;28;8859;-64
2022/09/07 13:51:16;;;;;;;;;1.00;1.00;25.10;99.90;;;;;;4954587;28;8882;-64
2022/09/07 13:54:22;;;;;;;;;0.80;0.80;25.20;99.90;;;;;;4960604;28;8859;-67
2022/09/07 13:57:26;;;;;;;;;1.00;1.00;25.30;99.90;;;;;;4973388;28;8889;-67
2022/09/07 13:59:56;;;;;;;;;1.00;1.00;25.30;99.90;;;;;;4959493;28;8997;-67
2022/09/07 14:02:34;;;;;;;;;2.80;1.40;25.40;99.90;;;;;;4970807;28;8867;-67
2022/09/07 14:05:06;;;;;;;;;2.00;2.00;25.40;99.90;;;;;;4957381;28;8872;-65
2022/09/07 14:07:36;;;;;;;;;1.20;1.20;25.50;99.90;;;;;;4983224;28;8863;-64
2022/09/07 14:10:19;;;;;;;;;1.00;1.00;25.60;99.90;;;;;;4959515;28;9023;-65